Wright, MN

10:23 AM CDT on August 22, 2014 (GMT -0500)
McGregor | Change Station
CLOSE
Current Station
Airport
Location: McGregor,
Elevation: 1227 ft
Nearby Weather Stations
Active Advisory: Beach Hazard Statement

Elev 1227 ft 46.62 °N, 93.31 °W | Updated 16 minutes ago

Overcast
Overcast
64 °F
Feels Like 64 °F
N
0
Wind Variable Wind from North

Today
High -- | Low -- °F
--% Chance of Precip.
Yesterday
High -- | Low -- °F
Precip. -- in
6:19 AM 8:09 PM
Waning Crescent, 8% visible
Pressure 29.99 in
Visibility 10.0 miles
Clouds Overcast 400 ft
Dew Point 63 °F
Humidity 94%
Rainfall 0.00 in
Snow Depth Not available.
UV 1 out of 12
Pollen 6.70 out of 12
Air Quality Not available.
Flu Activity Not available.
METAR KHZX 221507Z AUTO 00000KT 10SM OVC004 18/17 A2999 RMK AO2

More Conditions Fewer Conditions

Pressure 29.99 in
Visibility 10.0 miles
Clouds Overcast 400 ft
Dew Point 63 °F
Humidity 94%
Rainfall 0.00 in
Snow Depth Not available.
UV 1 out of 12
Pollen 6.70 out of 12
Air Quality Not available.
Flu Activity Not available.
METAR KHZX 221507Z AUTO 00000KT 10SM OVC004 18/17 A2999 RMK AO2

More Conditions Fewer Conditions

10-Day Weather Forecast

Almanac

Astronomy

Aug. 22, 2014 Rise Set
Actual Time 6:19 AM CDT 8:09 PM CDT
Civil Twilight 5:46 AM CDT 8:42 PM CDT
Nautical Twilight 5:07 AM CDT 9:21 PM CDT
Astronomical Twilight 4:23 AM CDT 10:04 PM CDT
Moon 3:37 AM CDT 6:21 PM CDT
Length of Visible Light 14h 55m
Length of Day
13h 50m
Tomorrow will be 3m 6s shorter.
Waning Crescent, 8% of the Moon is Illuminated
Today
Waning Crescent
Aug 25
New
Sep 2
First Quarter
Sep 8
Full
Sep 15
Last Quarter

Today's Extremes

State Highs State Lows

Community

WunderPhotos

Upload Photos

1,746,187 photos uploaded!

WunderBlogs® & News

Nearby

Snow Depth

Station Depth Elevation
No new snow has been reported.

Earthquake Activity

City Distance Mag. Time & Date
No recent earthquake activity has been reported nearby.
Minimum magnitude displayed is 2.5.

Coastal Water Temperatures

Place Temperature
No Stations Reporting

Nearby Weather Stations